Latest Weather Observations for Tewantin

IDQ60901

Issued at 10:55 pm EST Wednesday 23 April 2014 (issued every 10 minutes, with the page automatically refreshed every 10 minutes)

About weather observations | Map of Brisbane area stations | Latest observations for Brisbane area | Other Formats
Station Details ID: 040908 Name: TEWANTIN RSL PARK Lat: -26.39 Lon: 153.04 Height: 6.4 m
Data from the previous 72 hours. | See also: Recent months at Tewantin
Date/Time
EST
Tmp

°C
App
Tmp
°C
Dew
Point
°C
Rel
Hum
%
Delta-T

°C
Wind Press
QNH
hPa
Press
MSL
hPa
Rain
since
9 am
mm
Dir
 
Spd
km/h
Gust
km/h
Spd
kts
Gust
kts
23/10:30pm 20.2 23.2 18.5 90 1.1 CALM 0 6 0 3 1017.4 - 3.8
23/10:00pm 20.1 22.9 18.9 93 0.8 NW 2 7 1 4 1017.6 - 3.8
23/09:30pm 20.3 23.1 18.8 91 0.9 W 2 6 1 3 1017.7 - 3.8
23/09:00pm 20.1 23.3 18.8 92 0.8 CALM 0 6 0 3 1017.8 1017.8 3.8
23/08:30pm 20.1 23.3 18.8 92 0.8 CALM 0 0 0 0 1017.8 - 3.8
23/08:00pm 20.5 22.5 18.8 90 1.1 SW 6 7 3 4 1017.7 - 3.8
23/07:30pm 20.7 22.8 19.0 90 1.1 WSW 6 9 3 5 1017.4 - 3.8
23/07:00pm 20.8 23.0 19.3 91 0.9 SSW 6 9 3 5 1017.4 - 3.8
23/06:30pm 20.7 23.1 19.7 94 0.6 SW 6 7 3 4 1017.4 - 3.8
23/06:00pm 20.7 23.0 19.4 92 0.8 SSE 6 7 3 4 1017.1 1017.1 3.8
23/05:30pm 20.7 24.4 19.9 95 0.5 CALM 0 0 0 0 1017.1 - 3.8
23/05:00pm 20.8 24.4 19.8 94 0.6 CALM 0 0 0 0 1016.9 - 3.8
23/04:30pm 20.8 24.0 19.8 94 0.6 WNW 2 9 1 5 1016.6 - 3.8
23/04:00pm 20.6 22.9 19.8 95 0.5 ENE 7 11 4 6 1016.3 - 3.6
23/03:30pm 20.6 21.1 19.3 92 0.8 NE 15 20 8 11 1016.4 - 2.8
23/03:00pm 22.5 24.2 18.5 78 2.5 NE 7 11 4 6 1016.1 1016.1 0.0
23/02:30pm 23.5 24.8 18.4 73 3.2 ENE 9 15 5 8 1016.2 - 0.0
23/02:00pm 24.0 24.5 17.5 67 4.0 E 11 17 6 9 1016.2 - 0.0
23/01:30pm 24.4 25.5 18.1 68 4.0 E 9 17 5 9 1016.5 - 0.0
23/01:00pm 24.7 25.8 17.9 66 4.3 SE 9 15 5 8 1016.6 - 0.0
23/12:30pm 25.0 25.9 18.4 66 4.2 ESE 11 17 6 9 1016.9 - 0.0
23/12:00pm 24.6 25.7 18.1 67 4.1 ESE 9 17 5 9 1017.6 1017.6 0.0
23/11:30am 24.8 25.9 18.0 66 4.3 SE 9 13 5 7 1017.9 - 0.0
23/11:00am 24.5 25.8 18.4 69 3.9 S 9 15 5 8 1018.4 - 0.0
23/10:30am 23.9 24.8 17.6 68 3.9 SSE 9 13 5 7 1018.8 - 0.0
23/10:00am 23.9 24.4 17.4 67 4.0 S 11 17 6 9 1018.8 - 0.0
23/09:30am 23.8 25.2 18.7 73 3.2 S 9 15 5 8 1019.1 - 0.0
23/09:00am 21.7 22.7 17.7 78 2.5 S 9 13 5 7 1019.3 1019.3 0.0
23/08:30am 20.4 22.2 18.2 87 1.4 S 6 9 3 5 1019.5 - 0.0
23/08:00am 19.3 21.9 17.6 90 1.0 CALM 0 0 0 0 1019.1 - 0.0
23/07:30am 18.5 20.3 17.5 94 0.6 SSW 4 7 2 4 1019.0 - 0.0
23/07:00am 18.0 19.1 17.0 94 0.6 NNW 7 11 4 6 1019.4 - 0.0
23/06:30am 17.8 20.3 17.2 96 0.4 CALM 0 0 0 0 1019.0 - 0.0
23/06:00am 17.4 19.6 16.6 95 0.5 CALM 0 0 0 0 1018.5 1018.5 0.0
23/05:30am 17.5 19.7 16.5 94 0.6 CALM 0 0 0 0 1018.4 - 0.0
23/05:00am 17.5 19.7 16.4 93 0.7 CALM 0 0 0 0 1018.3 - 0.0
23/04:30am 17.9 20.3 17.1 95 0.5 CALM 0 0 0 0 1018.2 - 0.0
23/04:00am 18.0 20.5 17.2 95 0.5 CALM 0 0 0 0 1018.0 - 0.0
23/03:30am 18.0 20.4 16.9 93 0.7 CALM 0 0 0 0 1017.8 - 0.0
23/03:00am 18.1 20.3 16.6 91 0.9 CALM 0 0 0 0 1017.9 1017.9 0.0
23/02:30am 18.1 20.4 16.8 92 0.8 CALM 0 0 0 0 1018.3 - 0.0
23/02:00am 18.2 20.6 16.9 92 0.8 CALM 0 0 0 0 1018.3 - 0.0
23/01:30am 18.1 20.5 17.1 94 0.6 CALM 0 0 0 0 1018.5 - 0.0
23/01:00am 17.9 20.1 16.6 92 0.8 CALM 0 0 0 0 1018.6 - 0.0
23/12:30am 18.0 20.3 16.7 92 0.8 CALM 0 0 0 0 1018.9 - 0.0
23/12:00am 18.2 20.5 16.7 91 0.9 CALM 0 0 0 0 1019.0 1019.0 0.0
 
Date/Time
EST
Tmp

°C
App
Tmp
°C
Dew
Point
°C
Rel
Hum
%
Delta-T

°C
Wind Press
QNH
hPa
Press
MSL
hPa
Rain
since
9 am
mm
Dir
 
Spd
km/h
Gust
km/h
Spd
kts
Gust
kts
22/11:30pm 18.3 20.5 16.6 90 1.0 CALM 0 0 0 0 1019.2 - 0.0
22/11:00pm 18.6 20.8 16.6 88 1.2 CALM 0 0 0 0 1019.5 - 0.0
22/10:30pm 18.7 20.8 16.3 86 1.4 CALM 0 0 0 0 1019.4 - 0.0
22/10:00pm 19.1 21.3 16.5 85 1.6 CALM 0 0 0 0 1019.5 - 0.0
22/09:30pm 19.3 21.1 16.5 84 1.7 SW 2 6 1 3 1019.6 - 0.0
22/09:00pm 19.4 21.6 16.4 83 1.8 CALM 0 0 0 0 1019.7 1019.7 0.0
22/08:30pm 19.7 21.8 16.3 81 2.0 CALM 0 0 0 0 1020.0 - 0.0
22/08:00pm 20.3 22.1 16.5 79 2.3 SSW 2 7 1 4 1019.9 - 0.0
22/07:30pm 20.8 21.9 16.6 77 2.5 SW 6 7 3 4 1019.7 - 0.0
22/07:00pm 21.3 23.2 16.7 75 2.8 SW 2 6 1 3 1019.4 - 0.0
22/06:30pm 21.9 23.9 16.0 69 3.6 CALM 0 0 0 0 1019.2 - 0.0
22/06:00pm 22.1 23.7 15.9 68 3.7 ENE 2 6 1 3 1019.0 1019.0 0.0
22/05:30pm 22.7 24.1 15.3 63 4.4 ENE 2 6 1 3 1018.9 - 0.0
22/05:00pm 23.6 24.1 15.6 61 4.8 E 7 11 4 6 1018.7 - 0.0
22/04:30pm 23.9 24.0 16.4 63 4.6 ENE 11 15 6 8 1018.6 - 0.0
22/04:00pm 24.3 24.2 16.0 60 5.0 ENE 11 17 6 9 1018.5 - 0.0
22/03:30pm 24.6 23.8 15.2 55 5.6 ENE 13 19 7 10 1018.4 - 0.0
22/03:00pm 24.9 24.5 15.2 54 5.8 ENE 11 19 6 10 1018.6 1018.6 0.0
22/02:30pm 25.2 24.8 16.3 57 5.5 E 13 24 7 13 1018.5 - 0.0
22/02:00pm 25.3 25.3 16.2 57 5.6 ESE 11 19 6 10 1018.6 - 0.0
22/01:30pm 25.2 24.8 16.1 57 5.6 E 13 20 7 11 1018.7 - 0.0
22/01:00pm 26.3 25.5 15.0 49 6.8 NE 13 20 7 11 1019.2 - 0.0
22/12:30pm 26.0 25.4 14.5 49 6.9 ENE 11 19 6 10 1019.6 - 0.0
22/12:00pm 26.2 26.8 17.6 59 5.4 NE 11 19 6 10 1019.9 1019.9 0.0
22/11:30am 25.9 25.9 16.2 55 6.0 NE 11 20 6 11 1020.5 - 0.0
22/11:00am 25.1 25.4 15.1 53 6.0 ESE 7 13 4 7 1020.8 - 0.0
22/10:30am 25.2 25.8 15.8 56 5.7 E 7 11 4 6 1021.2 - 0.0
22/10:00am 25.1 25.8 16.0 57 5.5 SE 7 15 4 8 1021.1 - 0.0
22/09:30am 24.7 25.4 15.6 57 5.5 SE 6 9 3 5 1021.2 - 0.0
22/09:00am 24.0 24.9 16.0 61 4.8 SSE 6 9 3 5 1021.5 1021.5 0.0
22/08:30am 22.5 24.6 17.2 72 3.3 SE 2 7 1 4 1021.7 - 0.0
22/08:00am 20.3 22.3 15.9 76 2.6 CALM 0 6 0 3 1021.5 - 0.0
22/07:30am 18.1 19.7 15.0 82 1.8 CALM 0 4 0 2 1021.3 - 0.0
22/07:00am 17.0 18.9 15.7 92 0.8 CALM 0 0 0 0 1021.1 - 0.0
22/06:30am 15.5 17.1 14.9 96 0.3 CALM 0 0 0 0 1020.8 - 0.0
22/06:00am 15.5 17.2 15.2 98 0.2 CALM 0 0 0 0 1020.8 1020.8 0.0
22/05:30am 15.6 17.3 15.3 98 0.2 CALM 0 0 0 0 1020.5 - 0.0
22/05:00am 15.3 16.7 14.5 95 0.5 CALM 0 0 0 0 1020.4 - 0.0
22/04:30am 15.6 17.1 14.6 94 0.6 CALM 0 0 0 0 1020.1 - 0.0
22/04:00am 15.9 17.6 15.1 95 0.5 CALM 0 0 0 0 1019.9 - 0.0
22/03:30am 16.2 17.9 15.2 94 0.6 CALM 0 0 0 0 1019.8 - 0.0
22/03:00am 16.4 18.2 15.4 94 0.6 CALM 0 0 0 0 1019.9 1019.9 0.0
22/02:30am 16.5 18.3 15.5 94 0.6 CALM 0 0 0 0 1019.8 - 0.0
22/02:00am 16.6 18.4 15.6 94 0.6 CALM 0 0 0 0 1020.1 - 0.0
22/01:30am 16.8 18.7 15.7 93 0.6 CALM 0 0 0 0 1020.3 - 0.0
22/01:00am 17.1 19.0 15.8 92 0.8 CALM 0 0 0 0 1020.3 - 0.0
22/12:30am 17.0 18.9 15.7 92 0.8 CALM 0 0 0 0 1020.5 - 0.0
22/12:00am 17.0 19.0 15.9 93 0.6 CALM 0 9 0 5 1020.6 1020.6 0.0
 
Date/Time
EST
Tmp

°C
App
Tmp
°C
Dew
Point
°C
Rel
Hum
%
Delta-T

°C
Wind Press
QNH
hPa
Press
MSL
hPa
Rain
since
9 am
mm
Dir
 
Spd
km/h
Gust
km/h
Spd
kts
Gust
kts
21/11:30pm 17.5 19.6 16.2 92 0.8 CALM 0 0 0 0 1020.8 - 0.0
21/11:00pm 17.7 19.8 16.2 91 0.9 CALM 0 0 0 0 1021.0 - 0.0
21/10:30pm 17.8 19.6 15.6 87 1.3 CALM 0 0 0 0 1021.1 - 0.0
21/10:00pm 18.3 20.3 15.9 86 1.4 CALM 0 0 0 0 1021.1 - 0.0
21/09:30pm 18.7 20.6 15.8 83 1.7 CALM 0 6 0 3 1021.1 - 0.0
21/09:00pm 19.2 21.3 16.2 83 1.8 CALM 0 2 0 1 1020.9 1020.9 0.0
21/08:30pm 19.7 21.9 16.5 82 1.9 CALM 0 0 0 0 1020.8 - 0.0
21/08:00pm 20.2 22.5 16.8 81 2.1 CALM 0 0 0 0 1020.7 - 0.0
21/07:30pm 21.1 23.1 15.9 72 3.1 CALM 0 0 0 0 1020.4 - 0.0
21/07:00pm 21.5 23.5 16.0 71 3.3 CALM 0 0 0 0 1020.1 - 0.0
21/06:30pm 22.2 23.0 15.8 67 3.8 N 6 7 3 4 1019.7 - 0.0
21/06:00pm 22.4 23.7 16.2 68 3.7 NNE 4 7 2 4 1019.5 1019.5 0.0
21/05:30pm 23.0 24.0 16.8 68 3.8 NNE 7 9 4 5 1019.1 - 0.0
21/05:00pm 24.0 24.0 17.3 66 4.2 NNE 13 17 7 9 1018.8 - 0.0
21/04:30pm 24.3 24.0 17.3 65 4.3 NE 15 22 8 12 1018.5 - 0.0
21/04:00pm 24.5 23.7 17.2 63 4.5 NNE 17 24 9 13 1018.4 - 0.0
21/03:30pm 24.8 24.5 17.3 63 4.7 NE 15 22 8 12 1018.3 - 0.0
21/03:00pm 25.3 24.7 17.5 62 4.9 NE 17 22 9 12 1018.3 1018.3 0.0
21/02:30pm 25.9 25.4 17.0 58 5.5 NE 15 20 8 11 1018.4 - 0.0
21/02:00pm 26.2 25.5 16.4 54 6.0 NE 15 22 8 12 1018.5 - 0.0
21/01:30pm 26.1 25.0 16.4 55 6.0 NE 17 24 9 13 1018.7 - 0.0
21/01:00pm 26.2 25.5 15.3 51 6.6 NNE 13 20 7 11 1019.0 - 0.0
21/12:30pm 26.0 25.1 14.8 50 6.7 NE 13 20 7 11 1019.4 - 0.0
21/12:00pm 26.0 26.4 14.8 50 6.7 SE 6 11 3 6 1019.6 1019.6 0.0
21/11:30am 26.5 27.6 14.6 48 7.1 NNE 2 9 1 5 1019.9 - 0.0
21/11:00am 26.0 25.5 13.8 47 7.2 NNE 9 17 5 9 1020.4 - 0.0
21/10:30am 25.8 26.1 14.9 51 6.5 N 7 19 4 10 1020.8 - 0.0
21/10:00am 25.3 25.2 15.9 56 5.7 N 11 17 6 9 1021.1 - 0.0
21/09:30am 25.0 25.4 16.2 58 5.4 N 9 13 5 7 1021.0 - 0.0
21/09:00am 24.2 25.1 16.2 61 4.9 N 6 7 3 4 1020.9 1020.9 0.0
21/08:30am 22.9 24.5 16.0 65 4.2 W 2 7 1 4 1020.9 - 0.0
21/08:00am 21.9 24.4 17.3 75 2.8 CALM 0 4 0 2 1020.8 - 0.0
21/07:30am 20.4 23.2 18.0 86 1.5 CALM 0 6 0 3 1020.6 - 0.0
21/07:00am 17.8 20.0 16.5 92 0.8 CALM 0 0 0 0 1020.3 - 0.0
21/06:30am 16.2 18.2 15.9 98 0.2 CALM 0 0 0 0 1020.0 - 0.0
21/06:00am 15.8 17.5 15.2 96 0.3 CALM 0 0 0 0 1019.6 1019.6 0.0
21/05:30am 15.9 17.6 15.3 96 0.3 CALM 0 0 0 0 1019.3 - 0.0
21/05:00am 16.1 17.9 15.6 97 0.3 CALM 0 0 0 0 1019.1 - 0.0
21/04:30am 16.2 18.0 15.6 96 0.3 CALM 0 0 0 0 1018.8 - 0.0
21/04:00am 16.4 18.2 15.6 95 0.5 CALM 0 0 0 0 1018.5 - 0.0
21/03:30am 16.7 18.7 15.9 95 0.5 CALM 0 0 0 0 1018.3 - 0.0
21/03:00am 16.9 18.9 15.9 94 0.6 CALM 0 0 0 0 1018.1 1018.1 0.0
21/02:30am 17.2 19.3 16.2 94 0.6 CALM 0 0 0 0 1018.1 - 0.0
21/02:00am 17.4 19.6 16.4 94 0.6 CALM 0 0 0 0 1018.2 - 0.0
21/01:30am 17.5 19.7 16.4 93 0.7 CALM 0 0 0 0 1018.3 - 0.0
21/01:00am 17.9 20.1 16.4 91 0.9 CALM 0 0 0 0 1018.5 - 0.0
21/12:30am 18.4 20.8 17.1 92 0.8 CALM 0 0 0 0 1018.5 - 0.0
21/12:00am 18.4 20.9 17.2 93 0.7 CALM 0 0 0 0 1018.7 1018.7 0.0
 
Date/Time
EST
Tmp

°C
App
Tmp
°C
Dew
Point
°C
Rel
Hum
%
Delta-T

°C
Wind Press
QNH
hPa
Press
MSL
hPa
Rain
since
9 am
mm
Dir
 
Spd
km/h
Gust
km/h
Spd
kts
Gust
kts
20/11:30pm 18.6 21.2 17.6 94 0.6 CALM 0 0 0 0 1018.8 - 0.0
20/11:00pm 18.8 21.3 17.3 91 0.9 CALM 0 0 0 0 1018.8 - 0.0

Latest Capital City Observations: Canberra | Sydney | Melbourne | Brisbane | Adelaide | Perth | Hobart | Darwin

Other Formats:

Comma delimited format used in spreadsheet applications
http://www.bom.gov.au/fwo/IDQ60901/IDQ60901.94570.axf

JavaScript Object Notation format (JSON) in row-major order
http://www.bom.gov.au/fwo/IDQ60901/IDQ60901.94570.json